sensor_id;sensor_type;location;lat;lon;timestamp;P1;durP1;ratioP1;P2;durP2;ratioP2
14890;SDS011;7537;48.014;11.590;2022-07-29T00:01:07;0.16;;;0.07;;
14890;SDS011;7537;48.014;11.590;2022-07-29T00:06:34;0.46;;;0.51;;
14890;SDS011;7537;48.014;11.590;2022-07-29T00:12:01;0.03;;;0.05;;
14890;SDS011;7537;48.014;11.590;2022-07-29T00:17:29;0.71;;;0.87;;
14890;SDS011;7537;48.014;11.590;2022-07-29T00:22:56;0.03;;;0.06;;
14890;SDS011;7537;48.014;11.590;2022-07-29T00:28:24;0.00;;;0.01;;
14890;SDS011;7537;48.014;11.590;2022-07-29T00:33:52;0.03;;;0.04;;
14890;SDS011;7537;48.014;11.590;2022-07-29T00:39:19;0.02;;;0.03;;
14890;SDS011;7537;48.014;11.590;2022-07-29T00:44:50;0.00;;;0.00;;
14890;SDS011;7537;48.014;11.590;2022-07-29T00:50:17;0.00;;;0.00;;
14890;SDS011;7537;48.014;11.590;2022-07-29T00:55:45;0.03;;;0.03;;
14890;SDS011;7537;48.014;11.590;2022-07-29T01:01:12;0.00;;;0.00;;
14890;SDS011;7537;48.014;11.590;2022-07-29T01:06:43;0.00;;;0.00;;
14890;SDS011;7537;48.014;11.590;2022-07-29T01:12:11;0.39;;;0.16;;
14890;SDS011;7537;48.014;11.590;2022-07-29T01:17:41;0.29;;;0.33;;
14890;SDS011;7537;48.014;11.590;2022-07-29T01:23:13;0.08;;;0.09;;
14890;SDS011;7537;48.014;11.590;2022-07-29T01:28:52;0.00;;;0.01;;
14890;SDS011;7537;48.014;11.590;2022-07-29T01:34:25;0.01;;;0.02;;
14890;SDS011;7537;48.014;11.590;2022-07-29T01:39:56;0.22;;;0.26;;
14890;SDS011;7537;48.014;11.590;2022-07-29T01:45:28;0.00;;;0.01;;
14890;SDS011;7537;48.014;11.590;2022-07-29T01:51:02;0.02;;;0.03;;
14890;SDS011;7537;48.014;11.590;2022-07-29T01:56:30;0.31;;;0.17;;
14890;SDS011;7537;48.014;11.590;2022-07-29T02:01:58;0.00;;;0.01;;
14890;SDS011;7537;48.014;11.590;2022-07-29T02:07:26;2.79;;;2.23;;
14890;SDS011;7537;48.014;11.590;2022-07-29T02:12:57;0.00;;;0.04;;
14890;SDS011;7537;48.014;11.590;2022-07-29T02:18:25;0.00;;;0.00;;
14890;SDS011;7537;48.014;11.590;2022-07-29T02:23:54;0.00;;;0.00;;
14890;SDS011;7537;48.014;11.590;2022-07-29T02:29:23;0.00;;;0.00;;
14890;SDS011;7537;48.014;11.590;2022-07-29T02:34:51;0.30;;;0.16;;
14890;SDS011;7537;48.014;11.590;2022-07-29T02:40:19;0.01;;;0.03;;
14890;SDS011;7537;48.014;11.590;2022-07-29T02:45:54;0.00;;;0.01;;
14890;SDS011;7537;48.014;11.590;2022-07-29T02:51:25;0.00;;;0.00;;
14890;SDS011;7537;48.014;11.590;2022-07-29T02:56:53;0.04;;;0.06;;
14890;SDS011;7537;48.014;11.590;2022-07-29T03:02:23;0.03;;;0.04;;
14890;SDS011;7537;48.014;11.590;2022-07-29T03:07:55;0.00;;;0.01;;
14890;SDS011;7537;48.014;11.590;2022-07-29T03:13:22;0.04;;;0.05;;
14890;SDS011;7537;48.014;11.590;2022-07-29T03:18:50;0.00;;;0.00;;
14890;SDS011;7537;48.014;11.590;2022-07-29T03:24:27;0.00;;;0.00;;
14890;SDS011;7537;48.014;11.590;2022-07-29T03:29:55;3.13;;;0.69;;
14890;SDS011;7537;48.014;11.590;2022-07-29T03:35:23;0.00;;;0.06;;
14890;SDS011;7537;48.014;11.590;2022-07-29T03:40:52;0.00;;;0.00;;
14890;SDS011;7537;48.014;11.590;2022-07-29T03:46:24;0.00;;;0.00;;
14890;SDS011;7537;48.014;11.590;2022-07-29T03:51:53;0.14;;;0.17;;
14890;SDS011;7537;48.014;11.590;2022-07-29T03:57:22;0.00;;;0.02;;
14890;SDS011;7537;48.014;11.590;2022-07-29T04:02:50;0.00;;;0.00;;
14890;SDS011;7537;48.014;11.590;2022-07-29T04:08:19;0.00;;;0.00;;
14890;SDS011;7537;48.014;11.590;2022-07-29T04:13:46;0.03;;;0.04;;
14890;SDS011;7537;48.014;11.590;2022-07-29T04:19:14;0.00;;;0.01;;
14890;SDS011;7537;48.014;11.590;2022-07-29T04:24:43;0.00;;;0.00;;
14890;SDS011;7537;48.014;11.590;2022-07-29T04:30:11;0.00;;;0.00;;
14890;SDS011;7537;48.014;11.590;2022-07-29T04:35:38;0.00;;;0.00;;
14890;SDS011;7537;48.014;11.590;2022-07-29T04:41:07;0.00;;;0.00;;
14890;SDS011;7537;48.014;11.590;2022-07-29T04:46:38;0.00;;;0.00;;
14890;SDS011;7537;48.014;11.590;2022-07-29T04:52:06;0.00;;;0.00;;
14890;SDS011;7537;48.014;11.590;2022-07-29T04:57:33;0.00;;;0.00;;
14890;SDS011;7537;48.014;11.590;2022-07-29T05:03:00;0.00;;;0.00;;
14890;SDS011;7537;48.014;11.590;2022-07-29T05:08:27;0.00;;;0.01;;
14890;SDS011;7537;48.014;11.590;2022-07-29T05:13:56;0.00;;;0.01;;
14890;SDS011;7537;48.014;11.590;2022-07-29T05:19:23;1.12;;;1.38;;
14890;SDS011;7537;48.014;11.590;2022-07-29T05:24:50;0.00;;;0.03;;
14890;SDS011;7537;48.014;11.590;2022-07-29T05:30:18;0.00;;;0.00;;
14890;SDS011;7537;48.014;11.590;2022-07-29T05:35:46;0.52;;;0.58;;
14890;SDS011;7537;48.014;11.590;2022-07-29T05:41:13;0.00;;;0.05;;
14890;SDS011;7537;48.014;11.590;2022-07-29T05:46:45;0.14;;;0.17;;
14890;SDS011;7537;48.014;11.590;2022-07-29T05:52:12;0.43;;;0.48;;
14890;SDS011;7537;48.014;11.590;2022-07-29T05:57:39;0.00;;;0.03;;
14890;SDS011;7537;48.014;11.590;2022-07-29T06:03:07;0.31;;;0.35;;
14890;SDS011;7537;48.014;11.590;2022-07-29T06:08:34;0.03;;;0.06;;
14890;SDS011;7537;48.014;11.590;2022-07-29T06:14:01;0.01;;;0.02;;
14890;SDS011;7537;48.014;11.590;2022-07-29T06:19:30;0.04;;;0.06;;
14890;SDS011;7537;48.014;11.590;2022-07-29T06:24:58;0.09;;;0.09;;
14890;SDS011;7537;48.014;11.590;2022-07-29T06:30:25;0.12;;;0.14;;
14890;SDS011;7537;48.014;11.590;2022-07-29T06:35:52;0.00;;;0.01;;
14890;SDS011;7537;48.014;11.590;2022-07-29T06:41:19;0.11;;;0.09;;
14890;SDS011;7537;48.014;11.590;2022-07-29T06:46:50;0.41;;;0.47;;
14890;SDS011;7537;48.014;11.590;2022-07-29T06:52:19;0.31;;;0.36;;
14890;SDS011;7537;48.014;11.590;2022-07-29T06:57:46;2.56;;;2.07;;
14890;SDS011;7537;48.014;11.590;2022-07-29T07:03:13;1.59;;;1.63;;
14890;SDS011;7537;48.014;11.590;2022-07-29T07:08:40;1.60;;;1.09;;
14890;SDS011;7537;48.014;11.590;2022-07-29T07:14:08;1.19;;;1.24;;
14890;SDS011;7537;48.014;11.590;2022-07-29T07:19:35;1.31;;;1.41;;
14890;SDS011;7537;48.014;11.590;2022-07-29T07:25:04;1.15;;;1.14;;
14890;SDS011;7537;48.014;11.590;2022-07-29T07:30:32;3.05;;;1.00;;
14890;SDS011;7537;48.014;11.590;2022-07-29T07:35:59;1.85;;;1.23;;
14890;SDS011;7537;48.014;11.590;2022-07-29T07:41:26;0.90;;;1.01;;
14890;SDS011;7537;48.014;11.590;2022-07-29T07:46:57;1.46;;;1.42;;
14890;SDS011;7537;48.014;11.590;2022-07-29T07:52:24;2.09;;;1.05;;
14890;SDS011;7537;48.014;11.590;2022-07-29T07:57:53;2.14;;;1.04;;
14890;SDS011;7537;48.014;11.590;2022-07-29T08:03:21;0.99;;;1.10;;
14890;SDS011;7537;48.014;11.590;2022-07-29T08:08:48;0.87;;;0.96;;
14890;SDS011;7537;48.014;11.590;2022-07-29T08:14:16;2.03;;;1.04;;
14890;SDS011;7537;48.014;11.590;2022-07-29T08:19:43;1.57;;;1.66;;
14890;SDS011;7537;48.014;11.590;2022-07-29T08:25:10;0.92;;;1.00;;
14890;SDS011;7537;48.014;11.590;2022-07-29T08:30:39;1.06;;;1.20;;
14890;SDS011;7537;48.014;11.590;2022-07-29T08:36:06;0.70;;;0.78;;
14890;SDS011;7537;48.014;11.590;2022-07-29T08:41:34;1.11;;;1.12;;
14890;SDS011;7537;48.014;11.590;2022-07-29T08:47:10;1.47;;;1.50;;
14890;SDS011;7537;48.014;11.590;2022-07-29T08:52:40;2.43;;;1.34;;
14890;SDS011;7537;48.014;11.590;2022-07-29T08:58:08;2.36;;;1.44;;
14890;SDS011;7537;48.014;11.590;2022-07-29T09:03:37;1.66;;;1.66;;
14890;SDS011;7537;48.014;11.590;2022-07-29T09:09:07;1.75;;;1.84;;
14890;SDS011;7537;48.014;11.590;2022-07-29T09:14:34;1.39;;;1.53;;
14890;SDS011;7537;48.014;11.590;2022-07-29T09:20:07;1.16;;;1.26;;
14890;SDS011;7537;48.014;11.590;2022-07-29T09:25:35;1.64;;;1.69;;
14890;SDS011;7537;48.014;11.590;2022-07-29T09:31:03;2.18;;;1.62;;
14890;SDS011;7537;48.014;11.590;2022-07-29T09:36:32;1.28;;;1.43;;
14890;SDS011;7537;48.014;11.590;2022-07-29T09:42:06;2.22;;;1.71;;
14890;SDS011;7537;48.014;11.590;2022-07-29T09:47:43;1.52;;;1.33;;
14890;SDS011;7537;48.014;11.590;2022-07-29T09:53:10;1.92;;;1.79;;
14890;SDS011;7537;48.014;11.590;2022-07-29T09:58:37;1.96;;;2.09;;
14890;SDS011;7537;48.014;11.590;2022-07-29T10:04:05;1.77;;;1.87;;
14890;SDS011;7537;48.014;11.590;2022-07-29T10:09:34;2.87;;;2.36;;
14890;SDS011;7537;48.014;11.590;2022-07-29T10:15:02;3.19;;;2.06;;
14890;SDS011;7537;48.014;11.590;2022-07-29T10:20:30;2.53;;;1.68;;
14890;SDS011;7537;48.014;11.590;2022-07-29T10:25:57;2.36;;;2.46;;
14890;SDS011;7537;48.014;11.590;2022-07-29T10:31:27;2.05;;;1.80;;
14890;SDS011;7537;48.014;11.590;2022-07-29T10:36:57;2.29;;;1.66;;
14890;SDS011;7537;48.014;11.590;2022-07-29T10:42:28;2.76;;;2.32;;
14890;SDS011;7537;48.014;11.590;2022-07-29T10:48:03;3.02;;;2.11;;
14890;SDS011;7537;48.014;11.590;2022-07-29T10:59:23;2.67;;;2.41;;
14890;SDS011;7537;48.014;11.590;2022-07-29T11:05:00;1.90;;;2.03;;
14890;SDS011;7537;48.014;11.590;2022-07-29T11:10:27;4.56;;;2.14;;
14890;SDS011;7537;48.014;11.590;2022-07-29T11:15:57;1.70;;;1.69;;
14890;SDS011;7537;48.014;11.590;2022-07-29T11:21:36;1.87;;;2.07;;
14890;SDS011;7537;48.014;11.590;2022-07-29T11:27:07;2.28;;;2.42;;
14890;SDS011;7537;48.014;11.590;2022-07-29T11:32:36;1.64;;;1.55;;
14890;SDS011;7537;48.014;11.590;2022-07-29T11:38:25;1.72;;;1.70;;
14890;SDS011;7537;48.014;11.590;2022-07-29T11:43:53;2.88;;;1.86;;
14890;SDS011;7537;48.014;11.590;2022-07-29T11:49:23;1.66;;;1.66;;
14890;SDS011;7537;48.014;11.590;2022-07-29T11:54:50;3.60;;;2.13;;
14890;SDS011;7537;48.014;11.590;2022-07-29T12:00:34;3.16;;;2.34;;
14890;SDS011;7537;48.014;11.590;2022-07-29T12:06:02;1.76;;;1.87;;
14890;SDS011;7537;48.014;11.590;2022-07-29T12:11:29;4.52;;;2.11;;
14890;SDS011;7537;48.014;11.590;2022-07-29T12:16:57;1.66;;;1.75;;
14890;SDS011;7537;48.014;11.590;2022-07-29T12:22:26;2.21;;;2.37;;
14890;SDS011;7537;48.014;11.590;2022-07-29T12:27:59;2.23;;;1.94;;
14890;SDS011;7537;48.014;11.590;2022-07-29T12:33:36;1.62;;;1.54;;
14890;SDS011;7537;48.014;11.590;2022-07-29T12:39:04;1.54;;;1.60;;
14890;SDS011;7537;48.014;11.590;2022-07-29T12:45:30;1.84;;;1.63;;
14890;SDS011;7537;48.014;11.590;2022-07-29T12:50:59;1.59;;;1.69;;
14890;SDS011;7537;48.014;11.590;2022-07-29T12:56:28;1.53;;;1.56;;
14890;SDS011;7537;48.014;11.590;2022-07-29T13:02:33;1.99;;;1.27;;
14890;SDS011;7537;48.014;11.590;2022-07-29T13:08:10;5.46;;;1.57;;
14890;SDS011;7537;48.014;11.590;2022-07-29T13:13:20;1.26;;;1.34;;
14890;SDS011;7537;48.014;11.590;2022-07-29T13:20:05;1.46;;;1.46;;
14890;SDS011;7537;48.014;11.590;2022-07-29T13:25:33;1.56;;;1.47;;
14890;SDS011;7537;48.014;11.590;2022-07-29T13:31:03;1.69;;;1.79;;
14890;SDS011;7537;48.014;11.590;2022-07-29T13:36:30;2.26;;;1.86;;
14890;SDS011;7537;48.014;11.590;2022-07-29T13:41:57;2.26;;;1.74;;
14890;SDS011;7537;48.014;11.590;2022-07-29T13:47:25;1.81;;;1.39;;
14890;SDS011;7537;48.014;11.590;2022-07-29T13:53:04;3.12;;;1.64;;
14890;SDS011;7537;48.014;11.590;2022-07-29T13:58:31;1.67;;;1.74;;
14890;SDS011;7537;48.014;11.590;2022-07-29T14:04:00;4.24;;;2.34;;
14890;SDS011;7537;48.014;11.590;2022-07-29T14:09:28;1.72;;;1.83;;
14890;SDS011;7537;48.014;11.590;2022-07-29T14:14:55;3.24;;;2.14;;
14890;SDS011;7537;48.014;11.590;2022-07-29T14:20:30;1.59;;;1.71;;
14890;SDS011;7537;48.014;11.590;2022-07-29T14:25:57;1.36;;;1.44;;
14890;SDS011;7537;48.014;11.590;2022-07-29T14:31:25;3.83;;;1.98;;
14890;SDS011;7537;48.014;11.590;2022-07-29T14:36:55;1.64;;;1.79;;
14890;SDS011;7537;48.014;11.590;2022-07-29T14:42:22;1.97;;;2.07;;
14890;SDS011;7537;48.014;11.590;2022-07-29T14:47:49;2.75;;;2.01;;
14890;SDS011;7537;48.014;11.590;2022-07-29T14:53:16;3.57;;;1.94;;
14890;SDS011;7537;48.014;11.590;2022-07-29T14:58:44;6.58;;;2.25;;
14890;SDS011;7537;48.014;11.590;2022-07-29T15:04:11;2.72;;;1.92;;
14890;SDS011;7537;48.014;11.590;2022-07-29T15:09:40;2.60;;;1.79;;
14890;SDS011;7537;48.014;11.590;2022-07-29T15:15:08;2.05;;;1.56;;
14890;SDS011;7537;48.014;11.590;2022-07-29T15:20:39;1.53;;;1.58;;
14890;SDS011;7537;48.014;11.590;2022-07-29T15:26:06;1.56;;;1.63;;
14890;SDS011;7537;48.014;11.590;2022-07-29T15:31:33;1.94;;;2.06;;
14890;SDS011;7537;48.014;11.590;2022-07-29T15:37:15;1.66;;;1.73;;
14890;SDS011;7537;48.014;11.590;2022-07-29T15:42:43;3.56;;;1.82;;
14890;SDS011;7537;48.014;11.590;2022-07-29T15:48:14;2.47;;;1.84;;
14890;SDS011;7537;48.014;11.590;2022-07-29T15:53:41;1.71;;;1.58;;
14890;SDS011;7537;48.014;11.590;2022-07-29T15:59:08;1.94;;;2.06;;
14890;SDS011;7537;48.014;11.590;2022-07-29T16:04:36;1.74;;;1.67;;
14890;SDS011;7537;48.014;11.590;2022-07-29T16:10:04;2.61;;;2.02;;
14890;SDS011;7537;48.014;11.590;2022-07-29T16:15:32;4.64;;;2.12;;
14890;SDS011;7537;48.014;11.590;2022-07-29T16:21:03;2.11;;;2.22;;
14890;SDS011;7537;48.014;11.590;2022-07-29T16:26:31;2.53;;;2.50;;
14890;SDS011;7537;48.014;11.590;2022-07-29T16:31:58;2.24;;;2.24;;
14890;SDS011;7537;48.014;11.590;2022-07-29T16:37:25;4.53;;;2.49;;
14890;SDS011;7537;48.014;11.590;2022-07-29T16:42:53;2.10;;;2.18;;
14890;SDS011;7537;48.014;11.590;2022-07-29T16:48:22;2.71;;;2.34;;
14890;SDS011;7537;48.014;11.590;2022-07-29T16:53:49;2.16;;;2.27;;
14890;SDS011;7537;48.014;11.590;2022-07-29T16:59:21;2.41;;;2.55;;
14890;SDS011;7537;48.014;11.590;2022-07-29T17:04:48;2.36;;;2.21;;
14890;SDS011;7537;48.014;11.590;2022-07-29T17:10:16;2.77;;;2.82;;
14890;SDS011;7537;48.014;11.590;2022-07-29T17:15:43;1.95;;;2.11;;
14890;SDS011;7537;48.014;11.590;2022-07-29T17:21:15;2.01;;;2.01;;
14890;SDS011;7537;48.014;11.590;2022-07-29T17:26:43;2.93;;;2.58;;
14890;SDS011;7537;48.014;11.590;2022-07-29T17:32:10;2.53;;;2.58;;
14890;SDS011;7537;48.014;11.590;2022-07-29T17:37:37;2.57;;;2.71;;
14890;SDS011;7537;48.014;11.590;2022-07-29T17:43:05;2.34;;;2.49;;
14890;SDS011;7537;48.014;11.590;2022-07-29T17:48:32;2.96;;;2.61;;
14890;SDS011;7537;48.014;11.590;2022-07-29T17:54:02;3.19;;;3.10;;
14890;SDS011;7537;48.014;11.590;2022-07-29T17:59:29;2.17;;;2.32;;
14890;SDS011;7537;48.014;11.590;2022-07-29T18:04:56;4.92;;;2.83;;
14890;SDS011;7537;48.014;11.590;2022-07-29T18:10:24;2.91;;;2.89;;
14890;SDS011;7537;48.014;11.590;2022-07-29T18:15:51;2.64;;;2.69;;
14890;SDS011;7537;48.014;11.590;2022-07-29T18:21:22;2.94;;;2.64;;
14890;SDS011;7537;48.014;11.590;2022-07-29T18:26:50;2.43;;;2.56;;
14890;SDS011;7537;48.014;11.590;2022-07-29T18:32:18;2.92;;;2.37;;
14890;SDS011;7537;48.014;11.590;2022-07-29T18:37:45;2.06;;;2.19;;
14890;SDS011;7537;48.014;11.590;2022-07-29T18:43:12;2.93;;;2.57;;
14890;SDS011;7537;48.014;11.590;2022-07-29T18:48:40;2.02;;;2.16;;
14890;SDS011;7537;48.014;11.590;2022-07-29T18:54:07;4.05;;;3.01;;
14890;SDS011;7537;48.014;11.590;2022-07-29T18:59:41;2.23;;;2.43;;
14890;SDS011;7537;48.014;11.590;2022-07-29T19:05:09;2.22;;;2.29;;
14890;SDS011;7537;48.014;11.590;2022-07-29T19:10:38;3.83;;;2.67;;
14890;SDS011;7537;48.014;11.590;2022-07-29T19:16:05;1.99;;;2.15;;
14890;SDS011;7537;48.014;11.590;2022-07-29T19:21:41;2.07;;;2.15;;
14890;SDS011;7537;48.014;11.590;2022-07-29T19:27:08;2.87;;;2.55;;
14890;SDS011;7537;48.014;11.590;2022-07-29T19:32:36;2.26;;;2.26;;
14890;SDS011;7537;48.014;11.590;2022-07-29T19:38:03;2.16;;;2.29;;
14890;SDS011;7537;48.014;11.590;2022-07-29T19:43:32;4.11;;;2.10;;
14890;SDS011;7537;48.014;11.590;2022-07-29T19:48:59;1.89;;;2.01;;
14890;SDS011;7537;48.014;11.590;2022-07-29T19:54:27;1.93;;;2.04;;
14890;SDS011;7537;48.014;11.590;2022-07-29T19:59:54;1.73;;;1.84;;
14890;SDS011;7537;48.014;11.590;2022-07-29T20:05:22;1.85;;;1.85;;
14890;SDS011;7537;48.014;11.590;2022-07-29T20:10:50;2.18;;;1.95;;
14890;SDS011;7537;48.014;11.590;2022-07-29T20:16:18;1.47;;;1.62;;
14890;SDS011;7537;48.014;11.590;2022-07-29T20:21:49;1.29;;;1.38;;
14890;SDS011;7537;48.014;11.590;2022-07-29T20:27:16;1.59;;;1.70;;
14890;SDS011;7537;48.014;11.590;2022-07-29T20:32:44;1.59;;;1.70;;
14890;SDS011;7537;48.014;11.590;2022-07-29T20:38:11;2.98;;;2.13;;
14890;SDS011;7537;48.014;11.590;2022-07-29T20:43:38;1.87;;;1.92;;
14890;SDS011;7537;48.014;11.590;2022-07-29T20:49:07;1.94;;;2.04;;
14890;SDS011;7537;48.014;11.590;2022-07-29T20:54:34;1.74;;;1.85;;
14890;SDS011;7537;48.014;11.590;2022-07-29T21:00:02;2.14;;;2.03;;
14890;SDS011;7537;48.014;11.590;2022-07-29T21:05:30;2.17;;;2.21;;
14890;SDS011;7537;48.014;11.590;2022-07-29T21:10:57;2.39;;;2.46;;
14890;SDS011;7537;48.014;11.590;2022-07-29T21:16:24;2.74;;;2.72;;
14890;SDS011;7537;48.014;11.590;2022-07-29T21:21:57;2.99;;;3.09;;
14890;SDS011;7537;48.014;11.590;2022-07-29T21:27:24;2.87;;;2.70;;
14890;SDS011;7537;48.014;11.590;2022-07-29T21:32:51;2.32;;;2.41;;
14890;SDS011;7537;48.014;11.590;2022-07-29T21:38:19;2.12;;;2.26;;
14890;SDS011;7537;48.014;11.590;2022-07-29T21:43:46;1.99;;;2.07;;
14890;SDS011;7537;48.014;11.590;2022-07-29T21:49:13;2.14;;;2.32;;
14890;SDS011;7537;48.014;11.590;2022-07-29T21:54:42;1.66;;;1.72;;
14890;SDS011;7537;48.014;11.590;2022-07-29T22:00:10;5.17;;;1.93;;
14890;SDS011;7537;48.014;11.590;2022-07-29T22:05:38;2.55;;;2.03;;
14890;SDS011;7537;48.014;11.590;2022-07-29T22:11:05;1.93;;;1.84;;
14890;SDS011;7537;48.014;11.590;2022-07-29T22:16:34;1.26;;;1.44;;
14890;SDS011;7537;48.014;11.590;2022-07-29T22:22:05;1.33;;;1.49;;
14890;SDS011;7537;48.014;11.590;2022-07-29T22:27:34;2.67;;;2.04;;
14890;SDS011;7537;48.014;11.590;2022-07-29T22:33:01;1.61;;;1.69;;
14890;SDS011;7537;48.014;11.590;2022-07-29T22:38:29;2.23;;;1.57;;
14890;SDS011;7537;48.014;11.590;2022-07-29T22:43:56;1.49;;;1.51;;
14890;SDS011;7537;48.014;11.590;2022-07-29T22:49:23;1.57;;;1.71;;
14890;SDS011;7537;48.014;11.590;2022-07-29T22:54:51;2.16;;;1.90;;
14890;SDS011;7537;48.014;11.590;2022-07-29T23:00:19;1.96;;;2.04;;
14890;SDS011;7537;48.014;11.590;2022-07-29T23:05:47;2.00;;;2.12;;
14890;SDS011;7537;48.014;11.590;2022-07-29T23:11:14;1.91;;;2.04;;
14890;SDS011;7537;48.014;11.590;2022-07-29T23:16:41;1.44;;;1.59;;
14890;SDS011;7537;48.014;11.590;2022-07-29T23:22:17;1.37;;;1.53;;
14890;SDS011;7537;48.014;11.590;2022-07-29T23:27:44;1.95;;;2.06;;
14890;SDS011;7537;48.014;11.590;2022-07-29T23:33:13;2.82;;;2.18;;
14890;SDS011;7537;48.014;11.590;2022-07-29T23:38:40;1.94;;;2.01;;
14890;SDS011;7537;48.014;11.590;2022-07-29T23:44:07;2.64;;;2.25;;
14890;SDS011;7537;48.014;11.590;2022-07-29T23:49:35;2.60;;;2.00;;
14890;SDS011;7537;48.014;11.590;2022-07-29T23:55:02;2.28;;;2.24;;
